sensor_id;sensor_type;location;lat;lon;timestamp;P1;durP1;ratioP1;P2;durP2;ratioP2
20026;SDS011;10174;42.688;23.344;2023-08-30T00:01:56;26.83;;;14.45;;
20026;SDS011;10174;42.688;23.344;2023-08-30T00:04:22;24.77;;;15.25;;
20026;SDS011;10174;42.688;23.344;2023-08-30T00:06:47;24.33;;;13.35;;
20026;SDS011;10174;42.688;23.344;2023-08-30T00:09:13;23.35;;;14.18;;
20026;SDS011;10174;42.688;23.344;2023-08-30T00:11:38;19.38;;;12.73;;
20026;SDS011;10174;42.688;23.344;2023-08-30T00:14:04;19.05;;;11.48;;
20026;SDS011;10174;42.688;23.344;2023-08-30T00:16:31;17.13;;;10.30;;
20026;SDS011;10174;42.688;23.344;2023-08-30T00:18:57;23.10;;;10.75;;
20026;SDS011;10174;42.688;23.344;2023-08-30T00:21:22;18.70;;;10.82;;
20026;SDS011;10174;42.688;23.344;2023-08-30T00:23:48;16.45;;;9.65;;
20026;SDS011;10174;42.688;23.344;2023-08-30T00:26:13;17.35;;;9.27;;
20026;SDS011;10174;42.688;23.344;2023-08-30T00:28:38;17.92;;;9.48;;
20026;SDS011;10174;42.688;23.344;2023-08-30T00:31:04;16.70;;;10.57;;
20026;SDS011;10174;42.688;23.344;2023-08-30T00:33:30;15.05;;;8.85;;
20026;SDS011;10174;42.688;23.344;2023-08-30T00:35:58;16.13;;;8.65;;
20026;SDS011;10174;42.688;23.344;2023-08-30T00:38:25;16.83;;;8.20;;
20026;SDS011;10174;42.688;23.344;2023-08-30T00:40:51;15.23;;;9.05;;
20026;SDS011;10174;42.688;23.344;2023-08-30T00:43:17;19.15;;;10.05;;
20026;SDS011;10174;42.688;23.344;2023-08-30T00:45:44;21.83;;;10.48;;
20026;SDS011;10174;42.688;23.344;2023-08-30T00:48:10;21.50;;;9.63;;
20026;SDS011;10174;42.688;23.344;2023-08-30T00:50:36;25.70;;;10.65;;
20026;SDS011;10174;42.688;23.344;2023-08-30T00:53:03;19.85;;;10.63;;
20026;SDS011;10174;42.688;23.344;2023-08-30T00:55:41;17.10;;;9.57;;
20026;SDS011;10174;42.688;23.344;2023-08-30T00:58:07;19.85;;;10.15;;
20026;SDS011;10174;42.688;23.344;2023-08-30T01:00:32;18.00;;;10.00;;
20026;SDS011;10174;42.688;23.344;2023-08-30T01:02:58;19.85;;;8.68;;
20026;SDS011;10174;42.688;23.344;2023-08-30T01:05:24;18.92;;;8.52;;
20026;SDS011;10174;42.688;23.344;2023-08-30T01:07:50;16.23;;;9.13;;
20026;SDS011;10174;42.688;23.344;2023-08-30T01:10:16;14.13;;;7.90;;
20026;SDS011;10174;42.688;23.344;2023-08-30T01:12:43;14.52;;;7.75;;
20026;SDS011;10174;42.688;23.344;2023-08-30T01:15:21;13.90;;;7.68;;
20026;SDS011;10174;42.688;23.344;2023-08-30T01:17:51;20.65;;;8.38;;
20026;SDS011;10174;42.688;23.344;2023-08-30T01:20:17;18.60;;;7.70;;
20026;SDS011;10174;42.688;23.344;2023-08-30T01:28:29;17.75;;;8.18;;
20026;SDS011;10174;42.688;23.344;2023-08-30T01:30:57;16.15;;;8.27;;
20026;SDS011;10174;42.688;23.344;2023-08-30T01:33:24;14.68;;;8.38;;
20026;SDS011;10174;42.688;23.344;2023-08-30T01:35:53;16.92;;;8.63;;
20026;SDS011;10174;42.688;23.344;2023-08-30T01:38:20;18.00;;;8.77;;
20026;SDS011;10174;42.688;23.344;2023-08-30T01:40:46;19.20;;;9.02;;
20026;SDS011;10174;42.688;23.344;2023-08-30T01:43:13;16.67;;;9.55;;
20026;SDS011;10174;42.688;23.344;2023-08-30T01:45:41;17.77;;;8.57;;
20026;SDS011;10174;42.688;23.344;2023-08-30T01:48:09;16.30;;;9.15;;
20026;SDS011;10174;42.688;23.344;2023-08-30T01:50:37;19.85;;;8.90;;
20026;SDS011;10174;42.688;23.344;2023-08-30T01:53:05;14.38;;;7.60;;
20026;SDS011;10174;42.688;23.344;2023-08-30T01:55:32;16.42;;;8.23;;
20026;SDS011;10174;42.688;23.344;2023-08-30T01:57:59;19.80;;;8.00;;
20026;SDS011;10174;42.688;23.344;2023-08-30T02:00:24;17.45;;;8.70;;
20026;SDS011;10174;42.688;23.344;2023-08-30T02:02:49;15.98;;;8.73;;
20026;SDS011;10174;42.688;23.344;2023-08-30T02:05:15;17.88;;;8.65;;
20026;SDS011;10174;42.688;23.344;2023-08-30T02:07:51;14.80;;;8.00;;
20026;SDS011;10174;42.688;23.344;2023-08-30T02:10:24;17.08;;;7.50;;
20026;SDS011;10174;42.688;23.344;2023-08-30T02:12:58;18.80;;;7.50;;
20026;SDS011;10174;42.688;23.344;2023-08-30T02:15:25;20.75;;;8.63;;
20026;SDS011;10174;42.688;23.344;2023-08-30T02:17:52;18.00;;;9.38;;
20026;SDS011;10174;42.688;23.344;2023-08-30T02:20:18;15.88;;;8.63;;
20026;SDS011;10174;42.688;23.344;2023-08-30T02:22:44;20.65;;;8.70;;
20026;SDS011;10174;42.688;23.344;2023-08-30T02:25:09;18.70;;;9.55;;
20026;SDS011;10174;42.688;23.344;2023-08-30T02:27:35;14.75;;;8.55;;
20026;SDS011;10174;42.688;23.344;2023-08-30T02:30:01;21.45;;;8.60;;
20026;SDS011;10174;42.688;23.344;2023-08-30T02:32:27;19.35;;;9.10;;
20026;SDS011;10174;42.688;23.344;2023-08-30T02:34:53;16.85;;;8.80;;
20026;SDS011;10174;42.688;23.344;2023-08-30T02:37:19;20.48;;;9.20;;
20026;SDS011;10174;42.688;23.344;2023-08-30T02:39:44;16.75;;;9.45;;
20026;SDS011;10174;42.688;23.344;2023-08-30T02:42:10;17.42;;;9.77;;
20026;SDS011;10174;42.688;23.344;2023-08-30T02:44:35;19.80;;;10.02;;
20026;SDS011;10174;42.688;23.344;2023-08-30T02:47:00;20.27;;;9.25;;
20026;SDS011;10174;42.688;23.344;2023-08-30T02:49:26;17.23;;;9.93;;
20026;SDS011;10174;42.688;23.344;2023-08-30T02:51:51;23.30;;;10.15;;
20026;SDS011;10174;42.688;23.344;2023-08-30T02:54:17;27.50;;;10.63;;
20026;SDS011;10174;42.688;23.344;2023-08-30T02:56:42;21.42;;;10.18;;
20026;SDS011;10174;42.688;23.344;2023-08-30T02:59:09;26.58;;;10.00;;
20026;SDS011;10174;42.688;23.344;2023-08-30T03:01:34;19.52;;;9.55;;
20026;SDS011;10174;42.688;23.344;2023-08-30T03:04:00;23.40;;;9.82;;
20026;SDS011;10174;42.688;23.344;2023-08-30T03:06:25;26.85;;;10.90;;
20026;SDS011;10174;42.688;23.344;2023-08-30T03:08:53;21.95;;;9.63;;
20026;SDS011;10174;42.688;23.344;2023-08-30T03:11:18;26.17;;;9.82;;
20026;SDS011;10174;42.688;23.344;2023-08-30T03:13:44;29.30;;;9.93;;
20026;SDS011;10174;42.688;23.344;2023-08-30T03:16:12;24.38;;;10.05;;
20026;SDS011;10174;42.688;23.344;2023-08-30T03:18:39;26.90;;;10.80;;
20026;SDS011;10174;42.688;23.344;2023-08-30T03:21:05;25.13;;;10.57;;
20026;SDS011;10174;42.688;23.344;2023-08-30T03:23:31;28.10;;;11.13;;
20026;SDS011;10174;42.688;23.344;2023-08-30T03:26:06;22.75;;;10.52;;
20026;SDS011;10174;42.688;23.344;2023-08-30T03:28:33;18.70;;;9.93;;
20026;SDS011;10174;42.688;23.344;2023-08-30T03:30:58;18.95;;;9.73;;
20026;SDS011;10174;42.688;23.344;2023-08-30T03:33:24;24.35;;;10.27;;
20026;SDS011;10174;42.688;23.344;2023-08-30T03:35:49;29.27;;;11.23;;
20026;SDS011;10174;42.688;23.344;2023-08-30T03:38:14;27.98;;;11.77;;
20026;SDS011;10174;42.688;23.344;2023-08-30T03:40:40;19.27;;;10.35;;
20026;SDS011;10174;42.688;23.344;2023-08-30T03:43:05;30.83;;;11.52;;
20026;SDS011;10174;42.688;23.344;2023-08-30T03:45:34;30.58;;;13.15;;
20026;SDS011;10174;42.688;23.344;2023-08-30T03:48:00;25.38;;;11.90;;
20026;SDS011;10174;42.688;23.344;2023-08-30T03:50:26;40.33;;;13.85;;
20026;SDS011;10174;42.688;23.344;2023-08-30T03:52:51;30.65;;;11.60;;
20026;SDS011;10174;42.688;23.344;2023-08-30T03:55:16;27.33;;;10.73;;
20026;SDS011;10174;42.688;23.344;2023-08-30T03:57:42;24.52;;;11.07;;
20026;SDS011;10174;42.688;23.344;2023-08-30T04:00:07;24.90;;;12.02;;
20026;SDS011;10174;42.688;23.344;2023-08-30T04:02:33;22.92;;;11.15;;
20026;SDS011;10174;42.688;23.344;2023-08-30T04:04:58;25.90;;;11.57;;
20026;SDS011;10174;42.688;23.344;2023-08-30T04:07:24;32.58;;;12.70;;
20026;SDS011;10174;42.688;23.344;2023-08-30T04:09:49;31.65;;;12.88;;
20026;SDS011;10174;42.688;23.344;2023-08-30T04:12:15;31.38;;;12.82;;
20026;SDS011;10174;42.688;23.344;2023-08-30T04:14:40;27.17;;;12.52;;
20026;SDS011;10174;42.688;23.344;2023-08-30T04:17:06;29.73;;;13.82;;
20026;SDS011;10174;42.688;23.344;2023-08-30T04:19:31;24.75;;;13.68;;
20026;SDS011;10174;42.688;23.344;2023-08-30T04:21:56;29.75;;;13.80;;
20026;SDS011;10174;42.688;23.344;2023-08-30T04:24:22;22.40;;;13.40;;
20026;SDS011;10174;42.688;23.344;2023-08-30T04:26:47;25.23;;;13.40;;
20026;SDS011;10174;42.688;23.344;2023-08-30T04:29:16;33.35;;;14.93;;
20026;SDS011;10174;42.688;23.344;2023-08-30T04:31:42;29.42;;;13.70;;
20026;SDS011;10174;42.688;23.344;2023-08-30T04:34:08;26.83;;;14.95;;
20026;SDS011;10174;42.688;23.344;2023-08-30T04:36:34;29.48;;;15.20;;
20026;SDS011;10174;42.688;23.344;2023-08-30T04:38:59;28.70;;;13.95;;
20026;SDS011;10174;42.688;23.344;2023-08-30T04:41:24;26.20;;;13.77;;
20026;SDS011;10174;42.688;23.344;2023-08-30T04:43:50;28.58;;;13.85;;
20026;SDS011;10174;42.688;23.344;2023-08-30T04:46:15;26.60;;;13.20;;
20026;SDS011;10174;42.688;23.344;2023-08-30T04:48:41;27.48;;;13.05;;
20026;SDS011;10174;42.688;23.344;2023-08-30T04:51:06;23.05;;;12.88;;
20026;SDS011;10174;42.688;23.344;2023-08-30T04:53:31;27.25;;;13.18;;
20026;SDS011;10174;42.688;23.344;2023-08-30T04:55:57;26.67;;;12.15;;
20026;SDS011;10174;42.688;23.344;2023-08-30T04:58:22;26.67;;;12.45;;
20026;SDS011;10174;42.688;23.344;2023-08-30T05:00:48;38.00;;;13.60;;
20026;SDS011;10174;42.688;23.344;2023-08-30T05:03:13;27.83;;;11.65;;
20026;SDS011;10174;42.688;23.344;2023-08-30T05:05:39;25.20;;;11.35;;
20026;SDS011;10174;42.688;23.344;2023-08-30T05:08:04;27.75;;;12.02;;
20026;SDS011;10174;42.688;23.344;2023-08-30T05:10:30;24.23;;;11.70;;
20026;SDS011;10174;42.688;23.344;2023-08-30T05:12:55;26.30;;;14.55;;
20026;SDS011;10174;42.688;23.344;2023-08-30T05:15:21;28.25;;;13.13;;
20026;SDS011;10174;42.688;23.344;2023-08-30T05:17:46;30.67;;;13.52;;
20026;SDS011;10174;42.688;23.344;2023-08-30T05:20:12;36.25;;;15.38;;
20026;SDS011;10174;42.688;23.344;2023-08-30T05:22:38;32.08;;;17.13;;
20026;SDS011;10174;42.688;23.344;2023-08-30T05:25:03;30.90;;;16.70;;
20026;SDS011;10174;42.688;23.344;2023-08-30T05:27:29;33.65;;;17.92;;
20026;SDS011;10174;42.688;23.344;2023-08-30T05:29:55;22.35;;;12.05;;
20026;SDS011;10174;42.688;23.344;2023-08-30T05:32:21;18.27;;;9.38;;
20026;SDS011;10174;42.688;23.344;2023-08-30T05:34:46;19.25;;;6.00;;
20026;SDS011;10174;42.688;23.344;2023-08-30T05:37:12;13.07;;;5.25;;
20026;SDS011;10174;42.688;23.344;2023-08-30T05:39:37;15.95;;;4.95;;
20026;SDS011;10174;42.688;23.344;2023-08-30T05:42:03;15.27;;;5.15;;
20026;SDS011;10174;42.688;23.344;2023-08-30T05:44:28;13.98;;;5.40;;
20026;SDS011;10174;42.688;23.344;2023-08-30T05:46:54;13.82;;;5.07;;
20026;SDS011;10174;42.688;23.344;2023-08-30T05:49:19;13.30;;;4.63;;
20026;SDS011;10174;42.688;23.344;2023-08-30T05:51:45;13.77;;;5.28;;
20026;SDS011;10174;42.688;23.344;2023-08-30T05:54:10;13.18;;;5.65;;
20026;SDS011;10174;42.688;23.344;2023-08-30T05:56:36;13.02;;;4.95;;
20026;SDS011;10174;42.688;23.344;2023-08-30T05:59:02;14.10;;;5.13;;
20026;SDS011;10174;42.688;23.344;2023-08-30T06:01:27;16.60;;;5.57;;
20026;SDS011;10174;42.688;23.344;2023-08-30T06:03:52;10.90;;;4.72;;
20026;SDS011;10174;42.688;23.344;2023-08-30T06:06:18;17.77;;;5.32;;
20026;SDS011;10174;42.688;23.344;2023-08-30T06:08:43;13.40;;;5.95;;
20026;SDS011;10174;42.688;23.344;2023-08-30T06:11:09;12.70;;;6.25;;
20026;SDS011;10174;42.688;23.344;2023-08-30T06:13:34;11.73;;;5.28;;
20026;SDS011;10174;42.688;23.344;2023-08-30T06:16:00;17.00;;;6.05;;
20026;SDS011;10174;42.688;23.344;2023-08-30T06:18:26;17.73;;;6.00;;
20026;SDS011;10174;42.688;23.344;2023-08-30T06:20:55;11.32;;;5.28;;
20026;SDS011;10174;42.688;23.344;2023-08-30T06:23:20;12.27;;;4.97;;
20026;SDS011;10174;42.688;23.344;2023-08-30T06:25:52;11.50;;;5.50;;
20026;SDS011;10174;42.688;23.344;2023-08-30T06:28:19;19.67;;;7.88;;
20026;SDS011;10174;42.688;23.344;2023-08-30T06:30:44;13.30;;;6.22;;
20026;SDS011;10174;42.688;23.344;2023-08-30T06:33:09;23.33;;;12.25;;
20026;SDS011;10174;42.688;23.344;2023-08-30T06:35:36;14.55;;;5.55;;
20026;SDS011;10174;42.688;23.344;2023-08-30T06:38:04;17.23;;;6.10;;
20026;SDS011;10174;42.688;23.344;2023-08-30T06:40:29;12.68;;;5.40;;
20026;SDS011;10174;42.688;23.344;2023-08-30T06:42:55;12.18;;;5.95;;
20026;SDS011;10174;42.688;23.344;2023-08-30T06:45:20;12.80;;;5.90;;
20026;SDS011;10174;42.688;23.344;2023-08-30T06:47:47;16.13;;;7.15;;
20026;SDS011;10174;42.688;23.344;2023-08-30T06:50:14;22.13;;;11.10;;
20026;SDS011;10174;42.688;23.344;2023-08-30T06:52:40;12.38;;;5.13;;
20026;SDS011;10174;42.688;23.344;2023-08-30T06:55:05;14.43;;;5.68;;
20026;SDS011;10174;42.688;23.344;2023-08-30T06:57:31;11.85;;;4.95;;
20026;SDS011;10174;42.688;23.344;2023-08-30T06:59:56;17.67;;;5.40;;
20026;SDS011;10174;42.688;23.344;2023-08-30T07:02:23;21.30;;;6.88;;
20026;SDS011;10174;42.688;23.344;2023-08-30T07:04:48;16.38;;;6.28;;
20026;SDS011;10174;42.688;23.344;2023-08-30T07:07:13;13.82;;;6.28;;
20026;SDS011;10174;42.688;23.344;2023-08-30T07:09:39;13.88;;;6.10;;
20026;SDS011;10174;42.688;23.344;2023-08-30T07:12:06;13.15;;;5.82;;
20026;SDS011;10174;42.688;23.344;2023-08-30T07:14:32;16.50;;;6.75;;
20026;SDS011;10174;42.688;23.344;2023-08-30T07:16:57;15.80;;;7.28;;
20026;SDS011;10174;42.688;23.344;2023-08-30T07:19:24;16.98;;;6.28;;
20026;SDS011;10174;42.688;23.344;2023-08-30T07:21:49;13.48;;;5.53;;
20026;SDS011;10174;42.688;23.344;2023-08-30T07:24:15;12.93;;;5.65;;
20026;SDS011;10174;42.688;23.344;2023-08-30T07:26:40;15.45;;;6.15;;
20026;SDS011;10174;42.688;23.344;2023-08-30T07:29:06;20.17;;;7.03;;
20026;SDS011;10174;42.688;23.344;2023-08-30T07:31:32;16.20;;;8.07;;
20026;SDS011;10174;42.688;23.344;2023-08-30T07:33:57;15.55;;;5.28;;
20026;SDS011;10174;42.688;23.344;2023-08-30T07:36:24;17.77;;;7.85;;
20026;SDS011;10174;42.688;23.344;2023-08-30T07:38:50;15.93;;;6.20;;
20026;SDS011;10174;42.688;23.344;2023-08-30T07:41:16;15.20;;;5.90;;
20026;SDS011;10174;42.688;23.344;2023-08-30T07:43:41;16.48;;;5.65;;
20026;SDS011;10174;42.688;23.344;2023-08-30T07:46:07;13.38;;;6.20;;
20026;SDS011;10174;42.688;23.344;2023-08-30T07:48:32;21.35;;;5.95;;
20026;SDS011;10174;42.688;23.344;2023-08-30T07:50:57;16.38;;;5.93;;
20026;SDS011;10174;42.688;23.344;2023-08-30T07:53:23;13.57;;;5.88;;
20026;SDS011;10174;42.688;23.344;2023-08-30T07:55:48;29.98;;;15.20;;
20026;SDS011;10174;42.688;23.344;2023-08-30T07:58:15;27.23;;;13.15;;
20026;SDS011;10174;42.688;23.344;2023-08-30T08:00:40;23.40;;;11.13;;
20026;SDS011;10174;42.688;23.344;2023-08-30T08:03:06;21.70;;;8.30;;
20026;SDS011;10174;42.688;23.344;2023-08-30T08:05:31;21.23;;;6.07;;
20026;SDS011;10174;42.688;23.344;2023-08-30T08:07:59;12.98;;;5.57;;
20026;SDS011;10174;42.688;23.344;2023-08-30T08:10:25;18.38;;;6.68;;
20026;SDS011;10174;42.688;23.344;2023-08-30T08:12:50;17.80;;;6.75;;
20026;SDS011;10174;42.688;23.344;2023-08-30T08:15:16;14.20;;;6.80;;
20026;SDS011;10174;42.688;23.344;2023-08-30T08:17:41;16.70;;;6.10;;
20026;SDS011;10174;42.688;23.344;2023-08-30T08:20:06;10.60;;;4.95;;
20026;SDS011;10174;42.688;23.344;2023-08-30T08:22:32;12.18;;;4.30;;
20026;SDS011;10174;42.688;23.344;2023-08-30T08:24:57;17.90;;;5.28;;
20026;SDS011;10174;42.688;23.344;2023-08-30T08:27:26;9.68;;;4.13;;
20026;SDS011;10174;42.688;23.344;2023-08-30T08:29:51;12.30;;;4.32;;
20026;SDS011;10174;42.688;23.344;2023-08-30T08:32:16;7.45;;;3.40;;
20026;SDS011;10174;42.688;23.344;2023-08-30T08:34:42;8.50;;;3.00;;
20026;SDS011;10174;42.688;23.344;2023-08-30T08:37:07;15.60;;;3.88;;
20026;SDS011;10174;42.688;23.344;2023-08-30T08:39:33;14.25;;;3.80;;
20026;SDS011;10174;42.688;23.344;2023-08-30T08:41:59;13.32;;;3.33;;
20026;SDS011;10174;42.688;23.344;2023-08-30T08:44:25;12.77;;;3.70;;
20026;SDS011;10174;42.688;23.344;2023-08-30T08:46:52;9.30;;;3.35;;
20026;SDS011;10174;42.688;23.344;2023-08-30T08:49:18;10.63;;;4.10;;
20026;SDS011;10174;42.688;23.344;2023-08-30T08:51:44;12.35;;;4.13;;
20026;SDS011;10174;42.688;23.344;2023-08-30T08:54:11;9.13;;;2.88;;
20026;SDS011;10174;42.688;23.344;2023-08-30T08:56:38;8.05;;;3.10;;
20026;SDS011;10174;42.688;23.344;2023-08-30T08:59:04;17.73;;;6.05;;
20026;SDS011;10174;42.688;23.344;2023-08-30T09:01:33;8.75;;;3.70;;
20026;SDS011;10174;42.688;23.344;2023-08-30T09:04:04;11.00;;;4.07;;
20026;SDS011;10174;42.688;23.344;2023-08-30T09:06:31;10.07;;;3.97;;
20026;SDS011;10174;42.688;23.344;2023-08-30T09:08:56;11.43;;;4.03;;
20026;SDS011;10174;42.688;23.344;2023-08-30T09:11:22;10.35;;;4.88;;
20026;SDS011;10174;42.688;23.344;2023-08-30T09:13:47;10.35;;;4.10;;
20026;SDS011;10174;42.688;23.344;2023-08-30T09:16:13;9.85;;;4.65;;
20026;SDS011;10174;42.688;23.344;2023-08-30T09:18:40;13.23;;;4.65;;
20026;SDS011;10174;42.688;23.344;2023-08-30T09:21:08;6.72;;;3.72;;
20026;SDS011;10174;42.688;23.344;2023-08-30T09:23:34;9.75;;;4.70;;
20026;SDS011;10174;42.688;23.344;2023-08-30T09:26:00;7.35;;;3.92;;
20026;SDS011;10174;42.688;23.344;2023-08-30T09:28:27;10.10;;;3.88;;
20026;SDS011;10174;42.688;23.344;2023-08-30T09:30:53;8.82;;;3.53;;
20026;SDS011;10174;42.688;23.344;2023-08-30T09:33:21;15.07;;;7.72;;
20026;SDS011;10174;42.688;23.344;2023-08-30T09:35:47;10.73;;;4.28;;
20026;SDS011;10174;42.688;23.344;2023-08-30T09:38:18;6.85;;;3.88;;
20026;SDS011;10174;42.688;23.344;2023-08-30T09:40:44;12.23;;;3.95;;
20026;SDS011;10174;42.688;23.344;2023-08-30T09:43:10;8.43;;;3.83;;
20026;SDS011;10174;42.688;23.344;2023-08-30T09:45:43;10.10;;;4.28;;
20026;SDS011;10174;42.688;23.344;2023-08-30T09:48:08;12.35;;;4.43;;
20026;SDS011;10174;42.688;23.344;2023-08-30T09:50:34;13.85;;;5.60;;
20026;SDS011;10174;42.688;23.344;2023-08-30T09:53:07;13.63;;;7.50;;
20026;SDS011;10174;42.688;23.344;2023-08-30T09:55:36;8.98;;;4.18;;
20026;SDS011;10174;42.688;23.344;2023-08-30T09:58:03;8.70;;;4.72;;
20026;SDS011;10174;42.688;23.344;2023-08-30T10:00:31;9.98;;;4.97;;
20026;SDS011;10174;42.688;23.344;2023-08-30T10:02:59;12.77;;;5.05;;
20026;SDS011;10174;42.688;23.344;2023-08-30T10:05:25;8.82;;;4.03;;
20026;SDS011;10174;42.688;23.344;2023-08-30T10:07:52;7.40;;;4.28;;
20026;SDS011;10174;42.688;23.344;2023-08-30T10:10:19;9.68;;;4.40;;
20026;SDS011;10174;42.688;23.344;2023-08-30T10:12:45;9.55;;;4.50;;
20026;SDS011;10174;42.688;23.344;2023-08-30T10:15:11;12.88;;;5.10;;
20026;SDS011;10174;42.688;23.344;2023-08-30T10:17:37;9.45;;;4.25;;
20026;SDS011;10174;42.688;23.344;2023-08-30T10:20:06;13.27;;;5.28;;
20026;SDS011;10174;42.688;23.344;2023-08-30T10:22:32;11.18;;;5.25;;
20026;SDS011;10174;42.688;23.344;2023-08-30T10:25:03;13.38;;;4.88;;
20026;SDS011;10174;42.688;23.344;2023-08-30T10:27:35;16.65;;;8.40;;
20026;SDS011;10174;42.688;23.344;2023-08-30T10:30:04;8.48;;;5.00;;
20026;SDS011;10174;42.688;23.344;2023-08-30T10:32:32;21.40;;;13.63;;
20026;SDS011;10174;42.688;23.344;2023-08-30T10:35:03;10.80;;;4.57;;
20026;SDS011;10174;42.688;23.344;2023-08-30T10:37:29;10.65;;;5.10;;
20026;SDS011;10174;42.688;23.344;2023-08-30T10:39:59;14.73;;;5.70;;
20026;SDS011;10174;42.688;23.344;2023-08-30T10:42:28;9.10;;;5.05;;
20026;SDS011;10174;42.688;23.344;2023-08-30T10:44:57;15.10;;;5.75;;
20026;SDS011;10174;42.688;23.344;2023-08-30T10:47:26;11.30;;;4.78;;
20026;SDS011;10174;42.688;23.344;2023-08-30T10:49:56;9.05;;;5.20;;
20026;SDS011;10174;42.688;23.344;2023-08-30T10:52:26;13.52;;;5.43;;
20026;SDS011;10174;42.688;23.344;2023-08-30T10:54:53;10.45;;;5.57;;
20026;SDS011;10174;42.688;23.344;2023-08-30T10:57:29;11.68;;;5.05;;
20026;SDS011;10174;42.688;23.344;2023-08-30T11:02:33;14.23;;;5.85;;
20026;SDS011;10174;42.688;23.344;2023-08-30T11:04:59;12.65;;;6.40;;
20026;SDS011;10174;42.688;23.344;2023-08-30T11:07:25;16.23;;;6.13;;
20026;SDS011;10174;42.688;23.344;2023-08-30T11:09:54;14.00;;;6.18;;
20026;SDS011;10174;42.688;23.344;2023-08-30T11:12:20;16.83;;;7.32;;
20026;SDS011;10174;42.688;23.344;2023-08-30T11:14:48;15.45;;;6.53;;
20026;SDS011;10174;42.688;23.344;2023-08-30T11:17:17;10.68;;;5.90;;
20026;SDS011;10174;42.688;23.344;2023-08-30T11:19:43;11.98;;;5.40;;
20026;SDS011;10174;42.688;23.344;2023-08-30T11:22:09;32.35;;;12.48;;
20026;SDS011;10174;42.688;23.344;2023-08-30T11:24:35;20.15;;;6.55;;
20026;SDS011;10174;42.688;23.344;2023-08-30T11:27:00;12.88;;;6.63;;
20026;SDS011;10174;42.688;23.344;2023-08-30T11:29:26;12.55;;;5.22;;
20026;SDS011;10174;42.688;23.344;2023-08-30T11:31:52;13.45;;;6.05;;
20026;SDS011;10174;42.688;23.344;2023-08-30T11:34:20;15.95;;;5.97;;
20026;SDS011;10174;42.688;23.344;2023-08-30T11:36:49;13.07;;;5.40;;
20026;SDS011;10174;42.688;23.344;2023-08-30T11:39:16;14.07;;;5.97;;
20026;SDS011;10174;42.688;23.344;2023-08-30T11:41:42;13.93;;;5.50;;
20026;SDS011;10174;42.688;23.344;2023-08-30T11:44:07;10.60;;;5.10;;
20026;SDS011;10174;42.688;23.344;2023-08-30T11:46:33;26.50;;;5.70;;
20026;SDS011;10174;42.688;23.344;2023-08-30T11:48:58;17.52;;;5.55;;
20026;SDS011;10174;42.688;23.344;2023-08-30T11:51:25;15.57;;;8.68;;
20026;SDS011;10174;42.688;23.344;2023-08-30T11:53:50;8.93;;;5.40;;
20026;SDS011;10174;42.688;23.344;2023-08-30T11:56:18;10.32;;;5.10;;
20026;SDS011;10174;42.688;23.344;2023-08-30T11:58:44;33.60;;;23.38;;
20026;SDS011;10174;42.688;23.344;2023-08-30T12:01:10;11.45;;;5.45;;
20026;SDS011;10174;42.688;23.344;2023-08-30T12:03:36;17.80;;;6.05;;
20026;SDS011;10174;42.688;23.344;2023-08-30T12:06:01;9.85;;;5.32;;
20026;SDS011;10174;42.688;23.344;2023-08-30T12:08:28;9.30;;;5.15;;
20026;SDS011;10174;42.688;23.344;2023-08-30T12:10:56;15.60;;;5.82;;
20026;SDS011;10174;42.688;23.344;2023-08-30T12:13:23;13.50;;;5.68;;
20026;SDS011;10174;42.688;23.344;2023-08-30T12:15:53;13.02;;;5.78;;
20026;SDS011;10174;42.688;23.344;2023-08-30T12:18:20;13.48;;;5.57;;
20026;SDS011;10174;42.688;23.344;2023-08-30T12:23:27;10.65;;;5.85;;
20026;SDS011;10174;42.688;23.344;2023-08-30T12:26:00;11.85;;;6.07;;
20026;SDS011;10174;42.688;23.344;2023-08-30T12:28:26;14.70;;;7.00;;
20026;SDS011;10174;42.688;23.344;2023-08-30T12:30:53;9.85;;;6.25;;
20026;SDS011;10174;42.688;23.344;2023-08-30T12:33:19;12.00;;;5.53;;
20026;SDS011;10174;42.688;23.344;2023-08-30T12:35:45;12.90;;;6.32;;
20026;SDS011;10174;42.688;23.344;2023-08-30T12:38:10;11.32;;;5.78;;
20026;SDS011;10174;42.688;23.344;2023-08-30T12:40:48;18.55;;;6.13;;
20026;SDS011;10174;42.688;23.344;2023-08-30T12:43:15;15.18;;;5.40;;
20026;SDS011;10174;42.688;23.344;2023-08-30T12:45:41;11.50;;;6.00;;
20026;SDS011;10174;42.688;23.344;2023-08-30T12:48:08;10.77;;;5.65;;
20026;SDS011;10174;42.688;23.344;2023-08-30T12:50:35;9.50;;;5.32;;
20026;SDS011;10174;42.688;23.344;2023-08-30T12:53:01;10.65;;;6.22;;
20026;SDS011;10174;42.688;23.344;2023-08-30T12:55:28;8.82;;;6.03;;
20026;SDS011;10174;42.688;23.344;2023-08-30T12:57:53;9.38;;;5.45;;
20026;SDS011;10174;42.688;23.344;2023-08-30T13:00:19;10.52;;;5.95;;
20026;SDS011;10174;42.688;23.344;2023-08-30T13:02:44;10.75;;;5.57;;
20026;SDS011;10174;42.688;23.344;2023-08-30T13:05:09;8.13;;;5.38;;
20026;SDS011;10174;42.688;23.344;2023-08-30T13:07:35;12.73;;;5.65;;
20026;SDS011;10174;42.688;23.344;2023-08-30T13:10:01;11.45;;;5.78;;
20026;SDS011;10174;42.688;23.344;2023-08-30T13:12:27;12.27;;;5.30;;
20026;SDS011;10174;42.688;23.344;2023-08-30T13:14:52;33.97;;;17.27;;
20026;SDS011;10174;42.688;23.344;2023-08-30T13:17:18;10.32;;;5.88;;
20026;SDS011;10174;42.688;23.344;2023-08-30T13:19:43;13.93;;;5.97;;
20026;SDS011;10174;42.688;23.344;2023-08-30T13:22:09;10.30;;;5.82;;
20026;SDS011;10174;42.688;23.344;2023-08-30T13:24:35;10.93;;;4.78;;
20026;SDS011;10174;42.688;23.344;2023-08-30T13:27:01;10.20;;;4.90;;
20026;SDS011;10174;42.688;23.344;2023-08-30T13:29:27;10.55;;;4.70;;
20026;SDS011;10174;42.688;23.344;2023-08-30T13:31:52;9.25;;;4.95;;
20026;SDS011;10174;42.688;23.344;2023-08-30T13:34:17;9.93;;;4.95;;
20026;SDS011;10174;42.688;23.344;2023-08-30T13:36:43;12.55;;;4.47;;
20026;SDS011;10174;42.688;23.344;2023-08-30T13:39:08;13.43;;;4.53;;
20026;SDS011;10174;42.688;23.344;2023-08-30T13:41:33;15.93;;;4.60;;
20026;SDS011;10174;42.688;23.344;2023-08-30T13:44:00;9.82;;;4.60;;
20026;SDS011;10174;42.688;23.344;2023-08-30T13:46:26;8.85;;;4.70;;
20026;SDS011;10174;42.688;23.344;2023-08-30T13:48:51;10.93;;;4.70;;
20026;SDS011;10174;42.688;23.344;2023-08-30T13:51:21;8.05;;;4.63;;
20026;SDS011;10174;42.688;23.344;2023-08-30T13:53:47;10.65;;;5.03;;
20026;SDS011;10174;42.688;23.344;2023-08-30T13:56:13;9.85;;;4.28;;
20026;SDS011;10174;42.688;23.344;2023-08-30T13:58:38;10.32;;;4.10;;
20026;SDS011;10174;42.688;23.344;2023-08-30T14:01:04;14.90;;;4.80;;
20026;SDS011;10174;42.688;23.344;2023-08-30T14:03:30;12.98;;;4.82;;
20026;SDS011;10174;42.688;23.344;2023-08-30T14:05:56;12.95;;;5.05;;
20026;SDS011;10174;42.688;23.344;2023-08-30T14:08:21;9.73;;;4.60;;
20026;SDS011;10174;42.688;23.344;2023-08-30T14:10:47;11.63;;;4.80;;
20026;SDS011;10174;42.688;23.344;2023-08-30T14:13:13;13.30;;;4.47;;
20026;SDS011;10174;42.688;23.344;2023-08-30T14:15:38;10.45;;;4.78;;
20026;SDS011;10174;42.688;23.344;2023-08-30T14:18:03;9.32;;;4.57;;
20026;SDS011;10174;42.688;23.344;2023-08-30T14:20:29;10.70;;;4.55;;
20026;SDS011;10174;42.688;23.344;2023-08-30T14:22:54;15.20;;;4.18;;
20026;SDS011;10174;42.688;23.344;2023-08-30T14:25:20;7.28;;;4.32;;
20026;SDS011;10174;42.688;23.344;2023-08-30T14:27:45;8.82;;;4.13;;